Time;durP1;ratioP1;P1;durP2;ratioP2;P2;SDS_P1;SDS_P2;PMS_P1;PMS_P2;Temp;Humidity;BMP_temperature;BMP_pressure;BME280_temperature;BME280_humidity;BME280_pressure;Samples;Min_cycle;Max_cycle;Signal;HPM_P1;HPM_P2
2023/07/18 06:20:40;;;;;;;;;2.00;2.00;;;;;20.14;48.17;101638.03;5058946;27;45423;-70
2023/07/18 06:23:06;;;;;;;;;2.00;2.00;;;;;20.36;47.50;101630.88;5041124;28;45769;-70
2023/07/18 06:25:31;;;;;;;;;2.67;2.67;;;;;20.62;46.77;101638.69;5053043;28;45390;-69
2023/07/18 06:27:57;;;;;;;;;4.00;1.33;;;;;20.83;46.69;101623.50;5046990;28;49773;-69
2023/07/18 06:30:23;;;;;;;;;2.00;2.00;;;;;21.11;45.70;101630.16;5046755;28;45604;-70
2023/07/18 06:32:48;;;;;;;;;1.67;1.67;;;;;21.34;45.48;101635.44;5049176;28;45439;-70
2023/07/18 06:35:13;;;;;;;;;2.67;1.00;;;;;21.54;44.93;101636.41;5055151;28;45529;-70
2023/07/18 06:37:41;;;;;;;;;1.33;1.00;;;;;21.74;45.01;101644.63;5045585;27;45632;-70
2023/07/18 06:40:07;;;;;;;;;1.00;1.00;;;;;21.94;44.85;101644.72;5043044;28;46299;-71
2023/07/18 06:42:32;;;;;;;;;3.00;2.00;;;;;22.08;44.54;101640.81;5047558;28;45923;-68
2023/07/18 06:44:58;;;;;;;;;4.00;2.00;;;;;22.28;43.93;101646.28;5048307;28;45502;-68
2023/07/18 06:47:23;;;;;;;;;2.00;2.00;;;;;22.44;43.69;101667.38;5048318;28;45615;-70
2023/07/18 06:49:49;;;;;;;;;1.00;1.00;;;;;22.57;43.50;101684.25;5048094;28;45467;-69
2023/07/18 06:52:14;;;;;;;;;1.33;1.33;;;;;22.71;43.16;101706.47;5041415;28;45578;-69
2023/07/18 06:54:40;;;;;;;;;2.00;2.00;;;;;22.84;42.95;101714.34;5047617;28;45890;-68
2023/07/18 06:57:05;;;;;;;;;2.00;2.00;;;;;22.94;42.73;101709.78;5047603;28;45539;-70
2023/07/18 06:59:31;;;;;;;;;4.00;2.67;;;;;23.04;42.38;101707.06;5047837;28;46399;-71
2023/07/18 07:01:56;;;;;;;;;1.33;1.33;;;;;23.16;42.30;101700.53;5039113;28;45782;-70
2023/07/18 07:04:21;;;;;;;;;2.33;2.33;;;;;23.25;42.06;101673.56;5047012;28;45689;-70
2023/07/18 07:06:47;;;;;;;;;2.00;2.00;;;;;23.33;41.96;101664.78;5045532;28;45959;-71
2023/07/18 07:09:13;;;;;;;;;2.33;2.33;;;;;23.42;41.82;101682.88;5048037;28;46182;-70
2023/07/18 07:11:39;;;;;;;;;3.67;2.00;;;;;23.51;41.51;101689.25;5052518;28;45533;-70
2023/07/18 07:14:06;;;;;;;;;1.00;1.00;;;;;23.58;41.29;101708.50;5055328;28;45691;-70
2023/07/18 07:16:32;;;;;;;;;1.00;1.00;;;;;23.64;41.15;101697.94;5047236;28;46587;-67
2023/07/18 07:18:58;;;;;;;;;3.00;3.00;;;;;23.72;41.20;101669.25;5045537;28;46278;-69
2023/07/18 07:21:23;;;;;;;;;2.33;2.00;;;;;23.74;41.14;101648.28;5042399;28;45432;-68
2023/07/18 07:23:49;;;;;;;;;6.00;3.00;;;;;23.82;40.63;101638.38;5047366;28;45708;-71
2023/07/18 07:26:15;;;;;;;;;3.67;3.67;;;;;23.88;40.84;101644.22;5059947;28;45457;-71
2023/07/18 07:28:40;;;;;;;;;3.67;2.00;;;;;23.93;40.65;101645.50;5047490;28;45494;-71
2023/07/18 07:31:06;;;;;;;;;1.67;1.67;;;;;24.00;40.66;101647.59;5036527;28;45598;-69
2023/07/18 07:33:31;;;;;;;;;2.00;2.00;;;;;24.04;42.75;101657.13;5025530;28;45414;-67
2023/07/18 07:35:56;;;;;;;;;1.67;1.33;;;;;24.04;42.60;101649.00;5033453;28;45480;-67
2023/07/18 07:38:22;;;;;;;;;6.00;4.67;;;;;24.03;42.06;101639.16;5023436;28;46378;-67
2023/07/18 07:40:49;;;;;;;;;4.67;3.67;;;;;24.00;41.97;101634.03;5031806;28;45405;-67
2023/07/18 07:43:14;;;;;;;;;8.67;4.33;;;;;23.99;42.00;101632.34;5032900;28;45708;-66
2023/07/18 07:45:39;;;;;;;;;7.33;6.00;;;;;23.96;41.83;101614.50;5033329;28;45511;-67
2023/07/18 07:48:05;;;;;;;;;3.67;3.67;;;;;23.94;41.85;101579.41;5046365;28;46989;-67
2023/07/18 07:50:33;;;;;;;;;5.33;2.00;;;;;23.93;41.68;101574.13;5031944;28;45514;-66
2023/07/18 07:52:58;;;;;;;;;3.00;3.00;;;;;23.92;41.93;101556.16;5028306;28;45437;-67
2023/07/18 07:55:24;;;;;;;;;3.67;3.00;;;;;23.90;42.04;101525.63;5032755;28;45626;-67
2023/07/18 07:57:49;;;;;;;;;3.33;1.33;;;;;23.90;42.12;101507.50;5031396;28;45448;-67
2023/07/18 08:00:15;;;;;;;;;3.00;3.00;;;;;23.93;42.61;101487.38;5029219;28;45448;-67
2023/07/18 08:02:41;;;;;;;;;3.33;3.00;;;;;23.98;42.86;101462.53;5025937;28;45544;-70
2023/07/18 08:05:06;;;;;;;;;3.00;3.00;;;;;23.99;42.39;101467.78;5033559;28;45504;-69
2023/07/18 08:07:32;;;;;;;;;2.00;2.00;;;;;24.06;42.40;101484.28;5033409;28;46534;-69
2023/07/18 08:09:57;;;;;;;;;2.67;2.67;;;;;24.10;41.86;101488.41;5031529;28;50889;-72
2023/07/18 08:12:23;;;;;;;;;3.00;3.00;;;;;24.10;41.64;101477.56;5035722;28;45537;-71
2023/07/18 08:14:48;;;;;;;;;2.33;2.33;;;;;24.11;41.58;101463.00;5030762;28;45381;-71
2023/07/18 08:17:14;;;;;;;;;3.67;3.67;;;;;24.14;41.58;101442.84;5034301;28;46229;-71
2023/07/18 08:19:40;;;;;;;;;2.67;2.67;;;;;24.15;41.66;101452.72;5035279;28;45415;-70
2023/07/18 08:22:05;;;;;;;;;4.33;4.00;;;;;24.17;41.89;101456.97;5035450;28;45582;-71
2023/07/18 08:24:31;;;;;;;;;6.00;2.00;;;;;24.25;41.19;101442.63;5031024;28;45567;-68
2023/07/18 08:26:57;;;;;;;;;3.33;2.67;;;;;24.30;41.45;101444.84;5039682;28;53873;-69
2023/07/18 08:29:24;;;;;;;;;5.00;2.00;;;;;24.36;41.19;101451.53;5034947;28;45376;-70
2023/07/18 08:31:51;;;;;;;;;4.67;3.33;;;;;24.40;41.62;101471.91;5033448;28;45985;-69
2023/07/18 08:34:17;;;;;;;;;4.00;3.00;;;;;24.43;41.50;101469.72;5033773;28;45329;-69
2023/07/18 08:36:43;;;;;;;;;4.00;3.00;;;;;24.47;41.17;101473.84;5030373;28;47249;-70
2023/07/18 08:39:08;;;;;;;;;4.00;3.67;;;;;24.52;41.16;101480.66;5035815;28;45695;-69
2023/07/18 08:41:34;;;;;;;;;2.00;2.00;;;;;24.56;41.29;101477.47;5034793;28;45340;-71
2023/07/18 08:44:00;;;;;;;;;2.67;2.00;;;;;24.60;40.96;101481.56;5028892;28;45712;-71
2023/07/18 08:46:25;;;;;;;;;4.67;2.33;;;;;24.64;40.74;101484.81;5013737;28;45683;-71
2023/07/18 08:48:54;;;;;;;;;4.00;2.67;;;;;24.70;41.13;101494.19;5029913;28;45640;-71
2023/07/18 08:51:21;;;;;;;;;1.33;1.33;;;;;24.72;40.70;101494.88;5035068;28;45500;-71
2023/07/18 08:53:47;;;;;;;;;3.00;2.00;;;;;24.76;40.95;101496.25;5033054;28;45782;-72
2023/07/18 08:56:12;;;;;;;;;4.00;4.00;;;;;24.80;40.74;101499.53;5032857;28;46758;-73
2023/07/18 08:58:37;;;;;;;;;3.67;3.67;;;;;24.83;40.59;101491.94;5032600;28;45531;-70
2023/07/18 09:01:04;;;;;;;;;2.00;2.00;;;;;24.85;40.49;101489.91;5023448;28;45530;-70
2023/07/18 09:03:29;;;;;;;;;2.67;2.67;;;;;24.88;40.75;101480.59;5028748;28;45557;-71
2023/07/18 09:05:55;;;;;;;;;2.00;2.00;;;;;24.92;40.97;101495.56;5024948;28;45857;-68
2023/07/18 09:08:21;;;;;;;;;4.00;4.00;;;;;24.93;40.46;101483.69;5029659;28;45719;-71
2023/07/18 09:10:47;;;;;;;;;4.67;3.33;;;;;24.97;40.93;101476.91;5032632;28;45734;-70
2023/07/18 09:13:12;;;;;;;;;3.33;3.33;;;;;24.99;40.51;101460.47;5021464;28;45602;-70
2023/07/18 09:15:38;;;;;;;;;4.67;4.00;;;;;25.04;40.73;101470.84;5031779;28;46315;-71
2023/07/18 09:18:06;;;;;;;;;4.00;2.00;;;;;25.05;40.54;101467.13;5039537;28;45482;-71
2023/07/18 09:20:32;;;;;;;;;3.00;3.00;;;;;25.08;40.52;101474.94;5040059;28;45389;-70
2023/07/18 09:22:59;;;;;;;;;2.00;2.00;;;;;25.09;40.14;101461.19;5032185;28;45582;-71
2023/07/18 09:25:26;;;;;;;;;2.00;2.00;;;;;25.12;40.38;101466.31;5032693;28;47049;-71
2023/07/18 09:27:53;;;;;;;;;2.67;2.67;;;;;25.16;40.50;101461.41;5030144;28;45755;-70
2023/07/18 09:30:32;;;;;;;;;1.67;1.67;;;;;25.21;40.62;101471.75;5031543;28;45800;-71
2023/07/18 09:32:58;;;;;;;;;4.67;3.00;;;;;25.22;40.57;101470.78;5032423;28;45389;-73
2023/07/18 09:35:26;;;;;;;;;3.67;3.00;;;;;25.24;40.62;101469.59;5031529;28;45556;-72
2023/07/18 09:37:52;;;;;;;;;4.00;3.00;;;;;25.25;40.03;101465.88;5032780;28;45669;-71
2023/07/18 09:40:17;;;;;;;;;3.00;3.00;;;;;25.29;40.65;101474.53;5031541;28;45521;-69
2023/07/18 09:42:45;;;;;;;;;3.00;3.00;;;;;25.31;40.38;101460.78;5028259;28;45621;-70
2023/07/18 09:45:15;;;;;;;;;2.00;2.00;;;;;25.32;40.30;101451.63;5026783;28;47213;-70
2023/07/18 09:47:42;;;;;;;;;3.67;2.67;;;;;25.36;40.63;101453.00;5031915;28;45353;-69
2023/07/18 09:50:12;;;;;;;;;1.67;1.67;;;;;25.35;40.36;101449.44;5031808;28;45407;-69
2023/07/18 09:52:49;;;;;;;;;3.00;3.00;;;;;25.39;40.18;101449.97;5031449;28;45704;-70
2023/07/18 09:55:21;;;;;;;;;2.67;2.00;;;;;25.38;40.08;101446.38;5028065;28;45703;-71
2023/07/18 09:57:47;;;;;;;;;2.67;2.67;;;;;25.42;40.32;101449.63;5025198;28;45365;-69
2023/07/18 10:00:13;;;;;;;;;3.33;3.00;;;;;25.44;40.08;101453.03;5027155;28;45505;-68
2023/07/18 10:02:40;;;;;;;;;2.00;2.00;;;;;25.46;40.41;101445.56;5014003;28;45377;-68
2023/07/18 10:05:09;;;;;;;;;2.00;2.00;;;;;25.48;39.60;101445.41;5030906;28;45683;-69
2023/07/18 10:10:10;;;;;;;;;3.00;3.00;;;;;25.51;39.70;101432.31;5271746;22;45439;-68
2023/07/18 10:12:56;;;;;;;;;2.00;2.00;;;;;25.51;39.72;101420.63;5010544;28;45349;-69
2023/07/18 10:15:22;;;;;;;;;2.33;2.00;;;;;25.51;39.97;101418.72;4999066;28;46880;-68
2023/07/18 10:17:47;;;;;;;;;5.00;2.33;;;;;25.53;40.02;101422.16;5008234;28;45995;-71
2023/07/18 10:20:19;;;;;;;;;2.00;2.00;;;;;25.53;39.35;101421.28;4999838;28;45512;-70
2023/07/18 10:22:57;;;;;;;;;4.00;2.00;;;;;25.56;39.66;101417.41;5004777;28;45947;-71
2023/07/18 10:25:23;;;;;;;;;1.00;1.00;;;;;25.58;39.37;101418.13;5012166;28;46046;-71
2023/07/18 10:27:49;;;;;;;;;1.33;1.33;;;;;25.59;39.87;101426.09;5005882;28;45456;-68
2023/07/18 10:30:17;;;;;;;;;3.33;2.67;;;;;25.60;39.63;101416.06;5010263;28;45690;-68
2023/07/18 10:32:49;;;;;;;;;1.33;1.33;;;;;25.60;39.44;101410.63;5009699;28;45857;-70
2023/07/18 10:35:16;;;;;;;;;2.00;1.00;;;;;25.61;39.49;101407.75;5011110;28;45501;-68
2023/07/18 10:37:49;;;;;;;;;3.00;2.00;;;;;25.61;39.35;101409.63;5011141;28;45694;-68
2023/07/18 10:40:29;;;;;;;;;3.67;3.00;;;;;25.61;39.70;101406.91;5009748;28;45488;-69
2023/07/18 10:42:55;;;;;;;;;3.67;2.33;;;;;25.57;39.41;101394.66;5001638;28;45686;-69
2023/07/18 10:45:20;;;;;;;;;5.00;4.00;;;;;25.61;39.45;101394.16;5008066;28;45941;-70
2023/07/18 10:47:46;;;;;;;;;3.00;3.00;;;;;25.63;39.55;101396.72;5009780;28;45580;-70
2023/07/18 10:50:13;;;;;;;;;2.00;2.00;;;;;25.64;38.93;101393.84;5010641;28;45839;-71
2023/07/18 10:52:40;;;;;;;;;2.33;2.33;;;;;25.69;38.81;101389.75;5008651;28;45741;-71
2023/07/18 10:55:07;;;;;;;;;2.00;2.00;;;;;25.68;39.20;101383.47;5009966;28;46397;-71
2023/07/18 10:57:35;;;;;;;;;2.00;2.00;;;;;25.69;39.40;101379.75;4999008;28;45792;-70
2023/07/18 11:00:04;;;;;;;;;2.00;2.00;;;;;25.71;38.77;101383.13;5008081;28;45606;-70
2023/07/18 11:02:39;;;;;;;;;1.00;1.00;;;;;25.74;39.13;101371.94;5001452;28;45613;-70
2023/07/18 11:05:11;;;;;;;;;3.00;3.00;;;;;25.76;38.99;101372.59;5010912;28;46110;-70
2023/07/18 11:07:43;;;;;;;;;2.00;2.00;;;;;25.76;39.17;101361.72;5014478;28;45620;-69
2023/07/18 11:10:09;;;;;;;;;2.33;1.67;;;;;25.78;39.00;101372.44;5012860;28;45501;-71
2023/07/18 11:12:35;;;;;;;;;2.00;2.00;;;;;25.78;38.79;101356.13;5014631;28;45591;-70
2023/07/18 11:15:04;;;;;;;;;2.33;2.33;;;;;25.78;39.11;101356.97;5014215;28;46319;-71
2023/07/18 11:17:30;;;;;;;;;3.67;2.00;;;;;25.78;38.72;101354.25;5015080;28;45466;-70
2023/07/18 11:19:57;;;;;;;;;2.00;2.00;;;;;25.81;38.70;101349.50;5014575;28;45415;-70
2023/07/18 11:22:23;;;;;;;;;2.00;2.00;;;;;25.81;38.98;101346.78;5011743;28;45819;-71
2023/07/18 11:24:49;;;;;;;;;2.33;2.33;;;;;25.82;39.05;101343.06;5014495;28;45575;-70
2023/07/18 11:27:22;;;;;;;;;2.33;2.33;;;;;25.84;38.63;101336.44;5014201;28;45615;-70
2023/07/18 11:30:08;;;;;;;;;2.00;2.00;;;;;25.85;38.93;101332.69;5003593;28;45412;-70
2023/07/18 11:32:42;;;;;;;;;2.00;2.00;;;;;25.87;38.76;101332.50;5014598;28;45725;-70
2023/07/18 11:35:11;;;;;;;;;3.00;3.00;;;;;25.86;38.80;101326.22;5012508;28;46881;-68
2023/07/18 11:37:41;;;;;;;;;3.00;2.00;;;;;25.88;38.29;101320.63;5014142;28;45813;-69
2023/07/18 11:40:07;;;;;;;;;2.00;2.00;;;;;25.87;38.34;101319.75;5014577;28;45539;-69
2023/07/18 11:42:42;;;;;;;;;2.00;2.00;;;;;25.88;38.46;101320.63;5014126;28;45769;-70
2023/07/18 13:09:13;;;;;;;;;1.67;1.67;;;;;23.46;43.53;101174.13;5011677;28;45751;-68
2023/07/18 13:11:38;;;;;;;;;2.33;1.00;;;;;23.59;43.44;101168.28;5008389;28;45710;-69
2023/07/18 13:14:04;;;;;;;;;2.00;2.00;;;;;23.78;43.26;101168.06;5008792;28;45657;-70
2023/07/18 13:16:29;;;;;;;;;1.00;1.00;;;;;23.95;43.03;101163.59;5009276;28;45521;-70
2023/07/18 13:18:55;;;;;;;;;1.00;1.00;;;;;24.11;42.86;101161.16;5007431;28;46209;-70
2023/07/18 13:21:20;;;;;;;;;1.33;1.00;;;;;24.30;42.70;101165.47;5007978;28;45651;-69
2023/07/18 13:23:45;;;;;;;;;3.33;2.00;;;;;24.46;42.64;101154.69;5008613;28;45608;-68
2023/07/18 13:26:15;;;;;;;;;1.67;1.67;;;;;24.60;42.43;101149.63;5008083;28;53896;-70
2023/07/18 13:28:41;;;;;;;;;2.00;2.00;;;;;24.74;42.20;101150.84;5007908;28;46514;-70
2023/07/18 13:31:07;;;;;;;;;2.00;2.00;;;;;24.88;42.10;101143.09;5007553;28;45603;-70
2023/07/18 13:33:32;;;;;;;;;4.00;2.00;;;;;24.97;41.90;101158.38;4981307;28;45441;-71
2023/07/18 13:35:58;;;;;;;;;2.00;2.00;;;;;25.05;41.83;101147.50;5009586;28;46879;-71
2023/07/18 13:38:23;;;;;;;;;2.00;2.00;;;;;25.13;41.45;101141.22;5008048;28;46237;-70
2023/07/18 13:40:49;;;;;;;;;4.00;3.00;;;;;25.21;41.54;101148.50;5008458;28;45546;-70
2023/07/18 13:43:14;;;;;;;;;3.00;2.00;;;;;25.27;41.72;101148.69;5008383;28;45361;-70
2023/07/18 13:45:39;;;;;;;;;1.33;1.33;;;;;25.35;41.27;101149.72;5004959;28;45354;-70
2023/07/18 13:48:05;;;;;;;;;2.00;2.00;;;;;25.39;41.16;101141.03;5009045;28;45495;-71
2023/07/18 13:50:30;;;;;;;;;3.00;3.00;;;;;25.46;40.91;101132.22;5008789;28;45325;-70
2023/07/18 13:52:56;;;;;;;;;1.67;1.00;;;;;25.46;40.89;101124.91;5008902;28;45378;-71
2023/07/18 13:55:21;;;;;;;;;1.00;1.00;;;;;25.55;40.77;101133.03;5013711;28;45512;-68
2023/07/18 13:57:46;;;;;;;;;3.00;2.00;;;;;25.60;41.02;101130.69;5006061;28;45517;-68
2023/07/18 14:00:12;;;;;;;;;3.00;2.00;;;;;25.66;40.51;101127.25;5001282;28;52488;-69
2023/07/18 14:02:38;;;;;;;;;5.00;3.33;;;;;25.73;40.67;101131.00;5005191;28;45365;-69
2023/07/18 14:05:05;;;;;;;;;1.33;1.33;;;;;25.77;40.06;101132.34;5005170;28;45503;-69
2023/07/18 14:07:31;;;;;;;;;4.00;2.33;;;;;25.83;40.53;101132.66;5006739;28;46362;-70
2023/07/18 14:09:56;;;;;;;;;2.33;1.33;;;;;25.83;40.66;101130.78;4995888;28;45540;-69
2023/07/18 14:12:22;;;;;;;;;2.00;2.00;;;;;25.89;40.29;101127.38;5004042;28;45690;-70
2023/07/18 14:14:47;;;;;;;;;3.00;3.00;;;;;25.94;39.53;101128.72;5003392;28;59949;-70
2023/07/18 14:17:12;;;;;;;;;3.00;3.00;;;;;25.98;39.82;101128.19;5000820;28;45475;-71
2023/07/18 14:19:37;;;;;;;;;3.00;2.00;;;;;26.02;40.12;101118.66;4998691;28;45825;-69
2023/07/18 14:22:04;;;;;;;;;2.33;2.33;;;;;26.05;40.14;101122.91;4995140;28;46613;-69
2023/07/18 14:24:29;;;;;;;;;2.00;2.00;;;;;26.08;40.31;101119.84;4992353;28;45363;-69
2023/07/18 14:26:54;;;;;;;;;3.00;3.00;;;;;26.08;40.30;101122.56;4995180;28;46108;-68
2023/07/18 14:29:21;;;;;;;;;2.00;2.00;;;;;26.11;40.29;101113.19;4973976;28;47192;-69
2023/07/18 14:31:47;;;;;;;;;1.33;1.33;;;;;26.12;39.64;101123.88;4981456;28;45575;-69
2023/07/18 14:34:12;;;;;;;;;4.00;3.00;;;;;26.15;40.38;101120.81;4993100;28;45459;-69
2023/07/18 14:36:37;;;;;;;;;2.00;1.67;;;;;26.15;40.63;101118.09;4990356;28;45461;-69
2023/07/18 14:39:04;;;;;;;;;3.33;1.67;;;;;26.17;40.43;101123.34;4993268;28;47003;-69
2023/07/18 14:41:29;;;;;;;;;2.00;2.00;;;;;26.17;40.63;101116.03;4995019;28;45528;-69
2023/07/18 14:43:54;;;;;;;;;2.33;2.33;;;;;26.19;40.06;101115.84;4993918;28;45453;-69
2023/07/18 14:46:21;;;;;;;;;2.00;2.00;;;;;26.20;39.92;101108.56;4993800;28;46691;-68
2023/07/18 14:48:46;;;;;;;;;1.67;1.00;;;;;26.18;39.92;101104.16;5008838;28;45552;-70
2023/07/18 14:51:11;;;;;;;;;2.00;2.00;;;;;26.24;40.50;101118.06;4993519;28;45864;-69
2023/07/18 14:53:37;;;;;;;;;1.33;1.33;;;;;26.23;39.94;101106.31;4993611;28;45589;-68
2023/07/18 14:56:04;;;;;;;;;2.33;2.00;;;;;26.24;40.35;101113.44;4976809;28;46252;-69
2023/07/18 14:58:29;;;;;;;;;2.33;2.00;;;;;26.25;39.89;101114.34;4994053;28;45432;-69
2023/07/18 15:00:54;;;;;;;;;0.33;0.00;;;;;26.25;39.93;101111.63;4984421;28;45427;-70
2023/07/18 15:03:20;;;;;;;;;2.00;2.00;;;;;26.27;39.99;101113.13;4988357;28;45642;-69
2023/07/18 15:05:45;;;;;;;;;2.00;2.00;;;;;26.29;40.01;101110.22;4994502;28;46291;-69
2023/07/18 15:08:11;;;;;;;;;1.33;1.33;;;;;26.28;39.86;101109.38;4976996;28;45494;-71
2023/07/18 15:10:36;;;;;;;;;3.00;2.00;;;;;26.30;39.84;101103.75;4991839;28;47343;-69
2023/07/18 15:13:02;;;;;;;;;2.67;2.00;;;;;26.30;40.29;101104.63;4993165;28;45515;-70
2023/07/18 15:15:28;;;;;;;;;2.33;2.33;;;;;26.30;40.47;101101.91;4986786;28;46386;-69
2023/07/18 15:17:53;;;;;;;;;2.67;2.67;;;;;26.34;40.48;101115.13;4992118;28;45684;-69
2023/07/18 15:20:19;;;;;;;;;3.67;2.67;;;;;26.32;40.38;101115.31;4993049;28;45796;-68
2023/07/18 15:22:46;;;;;;;;;2.00;1.00;;;;;26.30;40.45;101107.34;4993702;28;45633;-69
2023/07/18 15:25:11;;;;;;;;;1.67;1.67;;;;;26.35;40.05;101112.22;4993913;28;46357;-69
2023/07/18 15:27:39;;;;;;;;;1.67;1.00;;;;;26.36;40.45;101103.03;4991664;28;45563;-69
2023/07/18 15:30:09;;;;;;;;;3.00;2.33;;;;;26.35;39.97;101105.97;4991035;28;45533;-69
2023/07/18 15:32:35;;;;;;;;;1.33;1.33;;;;;26.37;40.08;101107.47;4999039;28;45421;-67
2023/07/18 15:35:03;;;;;;;;;2.00;2.00;;;;;26.39;40.43;101112.72;4987536;28;45497;-68
2023/07/18 15:37:29;;;;;;;;;1.33;1.33;;;;;26.38;40.49;101098.28;4988113;28;45565;-69
2023/07/18 15:39:54;;;;;;;;;2.00;2.00;;;;;26.38;40.25;101097.41;4991497;28;45397;-68
2023/07/18 15:42:19;;;;;;;;;1.67;1.67;;;;;26.38;40.02;101101.00;4989520;28;45560;-68
2023/07/18 15:44:45;;;;;;;;;2.00;2.00;;;;;26.35;39.88;101090.47;4989705;28;45341;-69
2023/07/18 15:47:11;;;;;;;;;2.00;2.00;;;;;26.42;40.38;101096.91;4992612;28;45666;-69
2023/07/18 15:49:36;;;;;;;;;2.00;2.00;;;;;26.43;40.12;101101.31;4986731;28;45401;-68
2023/07/18 15:52:02;;;;;;;;;1.33;1.33;;;;;26.41;40.19;101097.91;4992914;28;45558;-68
2023/07/18 15:54:28;;;;;;;;;2.00;1.00;;;;;26.43;39.89;101089.56;4989695;28;47220;-68
2023/07/18 15:56:54;;;;;;;;;2.00;2.00;;;;;26.42;39.91;101098.75;4991364;28;45449;-69
2023/07/18 15:59:19;;;;;;;;;2.00;2.00;;;;;26.43;40.45;101093.16;4995979;28;45487;-69
2023/07/18 16:01:44;;;;;;;;;1.00;1.00;;;;;26.43;39.96;101095.88;4968827;28;49917;-68
2023/07/18 16:04:10;;;;;;;;;1.67;1.67;;;;;26.43;40.24;101093.16;4993393;28;46139;-68
2023/07/18 16:06:35;;;;;;;;;1.00;1.00;;;;;26.43;40.46;101093.16;4992218;28;45504;-68
2023/07/18 16:09:02;;;;;;;;;2.00;2.00;;;;;26.44;39.79;101089.38;4991191;28;45722;-68
2023/07/18 16:11:28;;;;;;;;;1.00;1.00;;;;;26.44;40.44;101099.41;4995849;28;45523;-67
2023/07/18 16:13:54;;;;;;;;;1.00;1.00;;;;;26.46;40.44;101110.13;4993274;28;45651;-67
2023/07/18 16:16:23;;;;;;;;;1.67;1.67;;;;;26.46;39.89;101110.13;4993347;28;45627;-68
2023/07/18 16:18:50;;;;;;;;;1.00;1.00;;;;;26.46;40.37;101100.09;4992517;28;45638;-68
2023/07/18 16:21:16;;;;;;;;;2.33;1.00;;;;;26.49;40.00;101101.63;4990462;28;45606;-67
2023/07/18 16:23:42;;;;;;;;;3.00;2.00;;;;;26.46;39.84;101085.63;4995832;28;46326;-68
2023/07/18 16:26:07;;;;;;;;;1.00;1.00;;;;;26.52;39.67;101082.22;4993194;28;45485;-67
2023/07/18 16:28:32;;;;;;;;;2.00;2.00;;;;;26.52;39.75;101083.03;4991882;28;45451;-68
2023/07/18 16:30:58;;;;;;;;;2.00;2.00;;;;;26.52;40.10;101082.22;4993012;28;45418;-68
2023/07/18 16:33:23;;;;;;;;;1.00;1.00;;;;;26.52;39.75;101074.88;4991540;28;46688;-69
2023/07/18 16:35:48;;;;;;;;;1.00;1.00;;;;;26.52;40.33;101079.50;4985550;28;55620;-68
2023/07/18 16:38:14;;;;;;;;;1.67;1.67;;;;;26.52;39.65;101087.66;5000121;28;45487;-68
2023/07/18 16:40:39;;;;;;;;;2.67;2.67;;;;;26.52;39.82;101077.59;4991270;28;45578;-67
2023/07/18 16:43:05;;;;;;;;;4.67;1.67;;;;;26.48;39.74;101070.81;4985278;28;46125;-68
2023/07/18 16:45:30;;;;;;;;;2.00;2.00;;;;;26.51;40.21;101070.47;4989978;28;45451;-68
2023/07/18 16:47:56;;;;;;;;;3.00;2.00;;;;;26.53;40.29;101070.28;4989169;28;45583;-67
2023/07/18 16:50:21;;;;;;;;;1.67;1.00;;;;;26.53;40.57;101070.28;5002288;28;45251;-67
2023/07/18 16:52:47;;;;;;;;;1.00;1.00;;;;;26.50;40.86;101068.78;4986593;28;46307;-68
2023/07/18 16:55:12;;;;;;;;;5.33;2.33;;;;;26.52;41.17;101074.06;4986600;28;45584;-68
2023/07/18 16:57:38;;;;;;;;;1.00;1.00;;;;;26.50;40.84;101060.63;4990532;28;45806;-68
2023/07/18 17:00:04;;;;;;;;;2.33;2.33;;;;;26.49;40.82;101063.50;4987079;28;46425;-69
2023/07/18 17:02:30;;;;;;;;;2.33;1.00;;;;;26.50;39.95;101060.63;4997066;28;45564;-68
2023/07/18 17:04:55;;;;;;;;;1.00;1.00;;;;;26.51;40.09;101056.00;4989369;28;45667;-68
2023/07/18 17:07:20;;;;;;;;;3.00;1.00;;;;;26.51;40.58;101062.31;4992788;28;45811;-68
2023/07/18 17:09:46;;;;;;;;;3.00;2.33;;;;;26.52;40.12;101053.09;4989678;28;45713;-70
2023/07/18 17:12:12;;;;;;;;;4.00;4.00;;;;;26.53;40.09;101049.34;4985670;28;45949;-70
2023/07/18 17:14:37;;;;;;;;;2.00;2.00;;;;;26.53;40.85;101054.78;4988596;28;45564;-69
2023/07/18 17:17:03;;;;;;;;;1.00;1.00;;;;;26.55;41.27;101060.91;4998465;28;45552;-69
2023/07/18 17:19:28;;;;;;;;;2.00;1.00;;;;;26.54;40.69;101051.06;4991755;28;45529;-69
2023/07/18 17:21:53;;;;;;;;;3.00;1.33;;;;;26.52;41.20;101050.38;4989800;28;45925;-68
2023/07/18 17:24:18;;;;;;;;;2.00;2.00;;;;;26.53;40.32;101040.34;4991463;28;49270;-69
2023/07/18 17:26:44;;;;;;;;;1.00;1.00;;;;;26.52;41.36;101042.22;4988666;28;45668;-70
2023/07/18 17:29:09;;;;;;;;;1.67;1.67;;;;;26.51;40.84;101042.38;4997094;28;45464;-69
2023/07/18 17:31:34;;;;;;;;;3.00;2.00;;;;;26.49;40.46;101039.00;4988318;28;54743;-69
2023/07/18 17:34:01;;;;;;;;;2.00;2.00;;;;;26.52;40.45;101050.38;4972190;28;45637;-69
2023/07/18 17:36:27;;;;;;;;;3.67;2.00;;;;;26.51;40.55;101039.66;4988502;28;45487;-70
2023/07/18 17:38:53;;;;;;;;;2.00;2.00;;;;;26.49;40.44;101029.00;4987172;28;45432;-70
2023/07/18 17:41:19;;;;;;;;;1.67;1.67;;;;;26.50;40.93;101037.97;4991432;28;46112;-69
2023/07/18 17:43:45;;;;;;;;;2.67;2.67;;;;;26.51;40.86;101040.53;4985471;28;45860;-69
2023/07/18 17:46:10;;;;;;;;;3.33;1.00;;;;;26.46;40.87;101029.34;4984933;28;45599;-70
2023/07/18 17:48:35;;;;;;;;;3.00;2.00;;;;;26.48;40.60;101038.16;4979352;28;45548;-71
2023/07/18 17:51:00;;;;;;;;;3.00;1.00;;;;;26.49;40.84;101039.88;4990013;28;46449;-71
2023/07/18 17:53:27;;;;;;;;;4.33;3.00;;;;;26.49;40.89;101033.56;4984528;28;45666;-71
2023/07/18 17:55:52;;;;;;;;;3.00;1.67;;;;;26.46;40.58;101037.50;4977806;28;45736;-70
2023/07/18 17:58:17;;;;;;;;;1.00;1.00;;;;;26.47;40.36;101035.63;4990121;28;46858;-70
2023/07/18 18:00:44;;;;;;;;;3.00;2.67;;;;;26.44;40.84;101036.81;4988611;28;46156;-71
2023/07/18 18:03:09;;;;;;;;;2.00;2.00;;;;;26.46;40.40;101033.94;4991947;28;46052;-70
2023/07/18 18:05:43;;;;;;;;;2.00;2.00;;;;;26.46;40.87;101034.78;4992246;28;45410;-70
2023/07/18 18:08:09;;;;;;;;;2.00;2.00;;;;;26.46;41.34;101036.66;4983871;28;45597;-70
2023/07/18 18:10:34;;;;;;;;;3.67;2.33;;;;;26.43;41.04;101038.72;4983766;28;46356;-70
2023/07/18 18:13:00;;;;;;;;;3.00;3.00;;;;;26.43;40.63;101041.44;4990740;28;45456;-70
2023/07/18 18:15:25;;;;;;;;;4.67;2.00;;;;;26.42;40.95;101034.31;4984360;28;45405;-70
2023/07/18 18:17:50;;;;;;;;;3.00;1.00;;;;;26.43;41.10;101033.28;4986839;28;45472;-70
2023/07/18 18:20:17;;;;;;;;;4.33;2.00;;;;;26.42;40.49;101039.75;4991131;28;45608;-70
2023/07/18 18:22:42;;;;;;;;;2.00;2.00;;;;;26.43;40.42;101040.56;4992976;28;45465;-70
2023/07/18 18:25:08;;;;;;;;;2.00;2.00;;;;;26.41;40.48;101029.88;4986060;28;46313;-70
2023/07/18 18:27:33;;;;;;;;;5.00;2.00;;;;;26.42;41.47;101034.31;4982855;28;45626;-70
2023/07/18 18:29:59;;;;;;;;;3.67;3.33;;;;;26.40;41.46;101022.75;4991380;28;45633;-70
2023/07/18 18:32:24;;;;;;;;;1.00;1.00;;;;;26.40;42.16;101017.28;4993070;28;45633;-70
2023/07/18 18:34:49;;;;;;;;;2.67;2.67;;;;;26.40;42.37;101022.75;4990966;28;45442;-70
2023/07/18 18:37:15;;;;;;;;;4.33;4.33;;;;;26.41;42.37;101029.03;4994748;28;45583;-70
2023/07/18 18:39:40;;;;;;;;;4.67;4.33;;;;;26.40;42.12;101028.19;4983298;28;47268;-70
2023/07/18 18:42:06;;;;;;;;;4.00;4.00;;;;;26.38;42.83;101032.97;4985313;28;45516;-70
2023/07/18 18:44:31;;;;;;;;;8.33;7.00;;;;;26.38;42.74;101024.81;4988218;28;45860;-70
2023/07/18 18:46:56;;;;;;;;;8.00;8.00;;;;;26.37;42.96;101025.84;4983231;28;50189;-70
2023/07/18 18:49:22;;;;;;;;;7.67;7.33;;;;;26.36;43.37;101032.28;4992956;28;45717;-70
2023/07/18 18:51:47;;;;;;;;;9.00;9.00;;;;;26.37;42.79;101028.56;4992258;28;45454;-70
2023/07/18 18:54:13;;;;;;;;;12.67;11.67;;;;;26.37;43.38;101033.16;4992492;28;45590;-70
2023/07/18 18:56:38;;;;;;;;;15.67;12.67;;;;;26.36;43.23;101029.56;4988940;28;51619;-70
2023/07/18 18:59:03;;;;;;;;;13.00;12.00;;;;;26.36;42.99;101026.03;4994812;28;45851;-71
2023/07/18 19:01:29;;;;;;;;;13.33;11.00;;;;;26.31;43.70;101024.69;4987722;28;45665;-71
2023/07/18 19:03:54;;;;;;;;;11.00;10.67;;;;;26.34;42.92;101036.22;4992679;28;45534;-70
2023/07/18 19:06:20;;;;;;;;;11.33;10.00;;;;;26.29;43.16;101029.44;4994036;28;45385;-70